Time;durP1;ratioP1;P1;durP2;ratioP2;P2;SDS_P1;SDS_P2;PMS_P1;PMS_P2;Temp;Humidity;BMP_temperature;BMP_pressure;BME280_temperature;BME280_humidity;BME280_pressure;Samples;Min_cycle;Max_cycle;Signal;HPM_P1;HPM_P2
2023/06/24 00:02:04;;;;;;;11.43;9.25;;;14.00;99.90;;;;;;5097690;28;20131;-58
2023/06/24 00:04:30;;;;;;;11.07;8.98;;;14.20;99.90;;;;;;5096069;28;20038;-58
2023/06/24 00:06:59;;;;;;;15.13;9.43;;;14.10;99.90;;;;;;5095578;28;20031;-58
2023/06/24 00:09:28;;;;;;;11.18;9.27;;;14.20;99.90;;;;;;5095930;28;20048;-58
2023/06/24 00:11:55;;;;;;;11.82;9.93;;;14.00;99.90;;;;;;5096132;28;20737;-58
2023/06/24 00:14:23;;;;;;;13.07;8.93;;;14.00;99.90;;;;;;5097680;28;20506;-58
2023/06/24 00:16:52;;;;;;;14.50;9.55;;;13.90;99.90;;;;;;5097939;28;20148;-58
2023/06/24 00:19:23;;;;;;;11.82;9.23;;;13.90;99.90;;;;;;5095394;28;20154;-58
2023/06/24 00:21:52;;;;;;;10.40;9.07;;;14.00;99.90;;;;;;5094668;28;20036;-58
2023/06/24 00:24:19;;;;;;;11.52;8.65;;;13.90;99.90;;;;;;5095476;28;20472;-58
2023/06/24 00:26:47;;;;;;;9.95;8.55;;;13.90;99.90;;;;;;5095844;28;20101;-58
2023/06/24 00:29:13;;;;;;;12.68;8.60;;;13.90;99.90;;;;;;5095723;28;21426;-57
2023/06/24 00:31:38;;;;;;;10.93;9.10;;;13.80;99.90;;;;;;5096662;28;20035;-58
2023/06/24 00:34:04;;;;;;;11.50;9.90;;;14.00;99.90;;;;;;5085243;28;20048;-58
2023/06/24 00:36:31;;;;;;;12.18;10.30;;;13.80;99.90;;;;;;5069361;28;20062;-58
2023/06/24 00:39:03;;;;;;;10.13;8.52;;;13.60;99.90;;;;;;5096202;28;20051;-58
2023/06/24 00:41:33;;;;;;;14.43;10.27;;;13.80;99.90;;;;;;5096439;28;20050;-58
2023/06/24 00:43:59;;;;;;;11.70;8.98;;;13.60;99.90;;;;;;5095105;28;20058;-57
2023/06/24 00:46:25;;;;;;;10.55;8.20;;;13.80;99.90;;;;;;5098150;28;20040;-58
2023/06/24 00:48:53;;;;;;;9.65;8.57;;;13.70;99.90;;;;;;5095870;28;20051;-58
2023/06/24 00:51:21;;;;;;;11.10;9.90;;;13.70;99.90;;;;;;5095711;28;20511;-58
2023/06/24 00:53:47;;;;;;;14.13;9.80;;;13.60;99.90;;;;;;5095208;28;20075;-58
2023/06/24 00:56:18;;;;;;;13.20;8.80;;;13.60;99.90;;;;;;5096021;28;20082;-57
2023/06/24 00:58:44;;;;;;;10.98;8.77;;;13.70;99.90;;;;;;5095636;28;20048;-58
2023/06/24 01:01:10;;;;;;;11.70;8.82;;;13.50;99.90;;;;;;5095620;28;21026;-59
2023/06/24 01:03:37;;;;;;;9.57;7.90;;;13.50;99.90;;;;;;5088442;28;20051;-58
2023/06/24 01:06:03;;;;;;;17.75;8.32;;;13.40;99.90;;;;;;5095141;28;20086;-58
2023/06/24 01:08:29;;;;;;;10.57;8.38;;;13.50;99.90;;;;;;5094995;28;20571;-58
2023/06/24 01:10:55;;;;;;;10.55;7.68;;;13.50;99.90;;;;;;5095184;28;20040;-58
2023/06/24 01:13:22;;;;;;;9.65;8.43;;;13.50;99.90;;;;;;5094002;28;20046;-58
2023/06/24 01:15:48;;;;;;;9.98;8.00;;;13.20;99.90;;;;;;5095767;28;20431;-58
2023/06/24 01:18:47;;;;;;;12.70;9.27;;;13.20;99.90;;;;;;5084890;28;20070;-58
2023/06/24 01:21:26;;;;;;;11.13;8.77;;;13.30;99.90;;;;;;5094279;28;20103;-59
2023/06/24 01:23:52;;;;;;;10.63;7.88;;;13.40;99.90;;;;;;5093789;28;21085;-57
2023/06/24 01:26:21;;;;;;;10.60;8.60;;;13.30;99.90;;;;;;5095567;28;20503;-58
2023/06/24 01:29:02;;;;;;;12.23;8.20;;;13.30;99.90;;;;;;5093883;28;20035;-58
2023/06/24 01:31:32;;;;;;;9.07;7.00;;;13.50;99.90;;;;;;5094601;28;20423;-58
2023/06/24 01:34:06;;;;;;;7.75;6.70;;;13.30;99.90;;;;;;5093663;28;20051;-58
2023/06/24 01:36:34;;;;;;;9.07;7.40;;;13.40;99.90;;;;;;5093399;28;20158;-58
2023/06/24 01:39:07;;;;;;;10.02;8.18;;;13.30;99.90;;;;;;5086075;28;20093;-58
2023/06/24 01:41:43;;;;;;;11.07;8.93;;;13.20;99.90;;;;;;5090281;28;20195;-57
2023/06/24 01:44:12;;;;;;;13.77;10.68;;;13.30;99.90;;;;;;5093330;28;20043;-58
2023/06/24 01:46:40;;;;;;;15.48;12.10;;;13.20;99.90;;;;;;5093620;27;20049;-58
2023/06/24 01:49:10;;;;;;;15.90;12.10;;;13.20;99.90;;;;;;5093612;28;20458;-59
2023/06/24 01:51:38;;;;;;;15.80;12.50;;;13.30;99.90;;;;;;5093266;28;20456;-59
2023/06/24 01:54:07;;;;;;;17.75;12.68;;;13.40;99.90;;;;;;5093820;28;20113;-58
2023/06/24 01:56:35;;;;;;;20.55;13.20;;;13.20;99.90;;;;;;5093816;28;20770;-57
2023/06/24 01:59:03;;;;;;;14.80;12.43;;;13.50;99.90;;;;;;5093641;28;20485;-57
2023/06/24 02:01:32;;;;;;;16.10;12.57;;;13.50;99.90;;;;;;5085752;28;20578;-58
2023/06/24 02:04:00;;;;;;;13.48;11.55;;;13.30;99.90;;;;;;5094019;28;20044;-58
2023/06/24 02:06:28;;;;;;;15.10;11.20;;;13.50;99.90;;;;;;5093222;28;20047;-58
2023/06/24 02:08:56;;;;;;;14.90;11.93;;;13.40;99.90;;;;;;5093930;28;20583;-58
2023/06/24 02:11:23;;;;;;;18.33;13.25;;;13.50;99.90;;;;;;5091017;28;20089;-58
2023/06/24 02:13:51;;;;;;;16.17;13.18;;;12.70;99.90;;;;;;5094440;28;20046;-58
2023/06/24 02:16:18;;;;;;;20.20;13.85;;;13.30;99.90;;;;;;5082073;28;20380;-62
2023/06/24 02:18:44;;;;;;;17.95;13.32;;;13.50;99.90;;;;;;5095789;28;20330;-58
2023/06/24 02:21:11;;;;;;;14.55;12.45;;;13.50;99.90;;;;;;5092644;28;20048;-58
2023/06/24 02:23:38;;;;;;;14.45;12.65;;;13.60;99.90;;;;;;5093051;28;20039;-57
2023/06/24 02:26:05;;;;;;;14.82;12.18;;;13.50;99.90;;;;;;5093523;28;20635;-58
2023/06/24 02:28:32;;;;;;;14.73;12.02;;;13.40;99.90;;;;;;5086497;28;20404;-58
2023/06/24 02:30:59;;;;;;;13.68;10.38;;;13.40;99.90;;;;;;5092847;28;20043;-59
2023/06/24 02:33:26;;;;;;;16.45;11.52;;;13.30;99.90;;;;;;5084353;28;20056;-58
2023/06/24 02:35:52;;;;;;;14.60;11.57;;;13.20;99.90;;;;;;5083611;28;20450;-57
2023/06/24 02:38:18;;;;;;;14.90;11.98;;;13.40;99.90;;;;;;5092695;27;20039;-57
2023/06/24 02:40:48;;;;;;;16.65;12.90;;;13.30;99.90;;;;;;5092627;28;20127;-57
2023/06/24 02:43:13;;;;;;;15.10;12.63;;;13.40;99.90;;;;;;5091797;28;20058;-58
2023/06/24 02:45:39;;;;;;;15.25;11.07;;;13.40;99.90;;;;;;5092924;28;20404;-58
2023/06/24 02:48:08;;;;;;;13.13;11.68;;;13.20;99.90;;;;;;5094806;28;20070;-58
2023/06/24 02:50:35;;;;;;;14.75;12.00;;;13.40;99.90;;;;;;5085150;28;20123;-58
2023/06/24 02:53:01;;;;;;;12.05;10.15;;;13.50;99.90;;;;;;5092778;28;20134;-58
2023/06/24 02:55:28;;;;;;;12.55;11.25;;;13.10;99.90;;;;;;5092682;28;20103;-58
2023/06/24 02:57:56;;;;;;;14.60;11.70;;;13.30;99.90;;;;;;5093273;28;20203;-58
2023/06/24 03:00:22;;;;;;;13.30;11.75;;;13.30;99.90;;;;;;5092345;28;20043;-57
2023/06/24 03:02:49;;;;;;;17.17;12.85;;;13.10;99.90;;;;;;5090631;28;20552;-58
2023/06/24 03:05:18;;;;;;;12.77;10.20;;;13.10;99.90;;;;;;5092203;28;20092;-57
2023/06/24 03:07:45;;;;;;;14.27;11.40;;;13.20;99.90;;;;;;5093137;28;20149;-58
2023/06/24 03:10:11;;;;;;;12.68;10.43;;;13.00;99.90;;;;;;5093282;28;20165;-58
2023/06/24 03:12:36;;;;;;;14.82;10.50;;;13.10;99.90;;;;;;5091981;28;20126;-58
2023/06/24 03:15:02;;;;;;;13.95;11.30;;;13.00;99.90;;;;;;5092331;28;20039;-58
2023/06/24 03:17:29;;;;;;;13.98;11.73;;;13.10;99.90;;;;;;5095022;28;20051;-58
2023/06/24 03:19:55;;;;;;;12.40;9.43;;;13.20;99.90;;;;;;5092891;28;20046;-58
2023/06/24 03:22:22;;;;;;;15.00;9.98;;;13.10;99.90;;;;;;5092900;28;20396;-58
2023/06/24 03:24:48;;;;;;;14.38;10.60;;;13.10;99.90;;;;;;5065669;28;20040;-58
2023/06/24 03:27:14;;;;;;;14.05;10.95;;;13.20;99.90;;;;;;5091714;28;20141;-58
2023/06/24 03:29:40;;;;;;;19.33;13.95;;;13.00;99.90;;;;;;5092454;28;20436;-58
2023/06/24 03:32:06;;;;;;;14.27;12.23;;;13.00;99.90;;;;;;5091469;28;20039;-58
2023/06/24 03:34:32;;;;;;;15.32;12.77;;;13.10;99.90;;;;;;5090856;28;20116;-57
2023/06/24 03:36:58;;;;;;;16.60;13.57;;;12.90;99.90;;;;;;5092867;28;20052;-58
2023/06/24 03:39:23;;;;;;;18.50;14.40;;;13.00;99.90;;;;;;5091410;28;20173;-58
2023/06/24 03:41:49;;;;;;;17.10;13.98;;;13.00;99.90;;;;;;5092173;28;20092;-58
2023/06/24 03:44:15;;;;;;;17.38;13.43;;;13.00;99.90;;;;;;5086383;28;20059;-58
2023/06/24 03:46:41;;;;;;;20.00;13.98;;;13.00;99.90;;;;;;5092278;28;20042;-58
2023/06/24 03:49:07;;;;;;;18.85;14.30;;;13.20;99.90;;;;;;5093957;28;20085;-58
2023/06/24 03:51:33;;;;;;;18.60;14.27;;;13.20;99.90;;;;;;5091860;28;20590;-58
2023/06/24 03:53:58;;;;;;;19.50;14.63;;;13.30;99.90;;;;;;5092989;28;20044;-58
2023/06/24 03:56:24;;;;;;;26.20;15.93;;;13.10;99.90;;;;;;5091238;28;20039;-58
2023/06/24 03:58:50;;;;;;;19.42;15.73;;;13.20;99.90;;;;;;5082466;28;20042;-58
2023/06/24 04:01:18;;;;;;;22.50;16.20;;;13.20;99.90;;;;;;5091276;28;20048;-59
2023/06/24 04:03:45;;;;;;;23.55;17.08;;;13.30;99.90;;;;;;5091647;28;20458;-58
2023/06/24 04:06:11;;;;;;;18.70;15.10;;;13.40;99.90;;;;;;5090529;28;20043;-59
2023/06/24 04:08:39;;;;;;;18.90;14.55;;;13.60;99.90;;;;;;5081046;28;20489;-58
2023/06/24 04:11:06;;;;;;;19.38;14.75;;;13.70;99.90;;;;;;5090430;28;20083;-58
2023/06/24 04:13:32;;;;;;;21.67;15.48;;;13.80;99.90;;;;;;5090920;28;20122;-58
2023/06/24 04:15:58;;;;;;;20.42;15.23;;;13.80;99.90;;;;;;5092016;28;20044;-58
2023/06/24 04:18:24;;;;;;;17.83;14.82;;;14.00;99.90;;;;;;5092262;28;20124;-58
2023/06/24 04:20:50;;;;;;;19.42;14.82;;;14.00;99.90;;;;;;5090464;28;20051;-58
2023/06/24 04:23:16;;;;;;;23.02;14.68;;;14.10;99.90;;;;;;5092262;28;20382;-58
2023/06/24 04:25:42;;;;;;;18.02;14.65;;;14.20;99.90;;;;;;5090814;28;20039;-58
2023/06/24 04:28:08;;;;;;;20.45;15.57;;;14.40;99.90;;;;;;5091177;28;20032;-58
2023/06/24 04:30:35;;;;;;;19.30;15.80;;;14.40;99.90;;;;;;5085170;28;20055;-57
2023/06/24 04:33:01;;;;;;;17.38;15.25;;;14.30;99.90;;;;;;5091775;28;20131;-58
2023/06/24 04:35:27;;;;;;;20.55;15.48;;;14.10;99.90;;;;;;5091716;28;20071;-58
2023/06/24 04:37:53;;;;;;;18.35;14.52;;;14.60;99.90;;;;;;5090910;28;20167;-58
2023/06/24 04:40:19;;;;;;;19.08;14.90;;;14.80;99.90;;;;;;5090512;28;20155;-58
2023/06/24 04:42:48;;;;;;;19.33;15.40;;;14.80;99.90;;;;;;5085927;28;20052;-58
2023/06/24 04:45:14;;;;;;;19.17;15.45;;;14.90;99.90;;;;;;5093713;28;20121;-58
2023/06/24 04:47:40;;;;;;;20.92;16.15;;;15.20;99.90;;;;;;5095569;28;20052;-58
2023/06/24 04:50:09;;;;;;;17.02;15.23;;;15.20;99.90;;;;;;5095529;28;20032;-58
2023/06/24 04:52:35;;;;;;;18.15;15.25;;;15.30;99.90;;;;;;5095579;28;20047;-58
2023/06/24 04:55:01;;;;;;;19.05;14.57;;;15.20;99.90;;;;;;5096113;28;20047;-58
2023/06/24 04:57:28;;;;;;;19.83;15.20;;;15.40;99.90;;;;;;5094947;28;20035;-58
2023/06/24 04:59:54;;;;;;;21.88;15.65;;;15.80;99.90;;;;;;5094918;28;20073;-59
2023/06/24 05:02:20;;;;;;;18.13;14.38;;;15.70;99.90;;;;;;5095361;28;20048;-57
2023/06/24 05:04:46;;;;;;;21.02;15.20;;;15.70;99.90;;;;;;5094730;28;20055;-58
2023/06/24 05:07:12;;;;;;;20.27;14.98;;;16.00;99.90;;;;;;5094409;28;20118;-58
2023/06/24 05:09:37;;;;;;;22.25;14.95;;;16.00;99.90;;;;;;5087270;28;20062;-57
2023/06/24 05:12:07;;;;;;;16.98;14.77;;;16.00;99.90;;;;;;5087966;28;20044;-58
2023/06/24 05:14:36;;;;;;;19.45;15.60;;;16.20;99.90;;;;;;5094306;28;20047;-58
2023/06/24 05:17:05;;;;;;;17.80;15.65;;;16.40;99.90;;;;;;5095412;28;20044;-57
2023/06/24 05:19:31;;;;;;;16.35;14.65;;;16.40;99.90;;;;;;5096707;28;20047;-58
2023/06/24 05:21:57;;;;;;;16.42;14.70;;;16.50;99.90;;;;;;5093773;28;20032;-57
2023/06/24 05:24:23;;;;;;;24.77;14.88;;;16.60;99.90;;;;;;5093348;28;20481;-58
2023/06/24 05:26:50;;;;;;;17.10;13.48;;;16.70;99.90;;;;;;5093606;27;20541;-58
2023/06/24 05:29:17;;;;;;;18.58;13.25;;;16.80;99.90;;;;;;5085350;28;20443;-57
2023/06/24 05:31:43;;;;;;;17.05;14.13;;;16.90;99.90;;;;;;5092908;28;20071;-57
2023/06/24 05:34:09;;;;;;;15.30;13.75;;;17.10;99.90;;;;;;5092463;28;20143;-57
2023/06/24 05:36:35;;;;;;;16.45;14.02;;;17.10;99.90;;;;;;5094263;28;20784;-57
2023/06/24 05:39:01;;;;;;;15.55;13.73;;;17.20;99.90;;;;;;5094345;28;20152;-57
2023/06/24 05:41:27;;;;;;;18.25;13.93;;;17.40;99.90;;;;;;5094226;28;20131;-58
2023/06/24 05:44:03;;;;;;;15.35;13.25;;;17.50;99.90;;;;;;5092815;28;20047;-57
2023/06/24 05:46:29;;;;;;;15.10;13.02;;;17.60;99.90;;;;;;5085330;28;20047;-58
2023/06/24 05:48:55;;;;;;;16.95;13.05;;;17.70;99.90;;;;;;5086629;28;20040;-58
2023/06/24 05:51:21;;;;;;;16.55;12.65;;;19.10;99.90;;;;;;5093923;28;20068;-58
2023/06/24 05:53:47;;;;;;;18.80;12.00;;;17.80;99.90;;;;;;5094849;28;20036;-58
2023/06/24 05:56:12;;;;;;;14.82;11.80;;;17.80;99.90;;;;;;5093591;28;20039;-58
2023/06/24 05:58:38;;;;;;;14.90;11.88;;;18.00;99.90;;;;;;5094644;28;20047;-57
2023/06/24 06:01:04;;;;;;;15.98;12.68;;;18.30;99.90;;;;;;5094291;28;20044;-58
2023/06/24 06:03:30;;;;;;;16.73;11.25;;;18.20;99.90;;;;;;5094463;28;20047;-57
2023/06/24 06:05:56;;;;;;;16.00;13.07;;;18.20;99.90;;;;;;5093620;28;20093;-58
2023/06/24 06:08:22;;;;;;;15.77;12.90;;;18.40;99.90;;;;;;5093377;28;20040;-58
2023/06/24 06:10:47;;;;;;;16.17;11.93;;;18.50;99.90;;;;;;5093706;28;20051;-57
2023/06/24 06:13:13;;;;;;;15.35;11.60;;;18.60;99.90;;;;;;5093516;28;20070;-57
2023/06/24 06:15:39;;;;;;;15.07;12.05;;;18.90;99.90;;;;;;5094415;28;20120;-57
2023/06/24 06:18:05;;;;;;;15.85;12.18;;;18.90;99.90;;;;;;5094989;28;20039;-58
2023/06/24 06:20:30;;;;;;;13.93;11.85;;;19.40;99.90;;;;;;5094949;28;20153;-57
2023/06/24 06:22:57;;;;;;;13.10;11.70;;;19.80;99.90;;;;;;5095193;28;20039;-58
2023/06/24 06:25:23;;;;;;;14.63;11.40;;;20.10;99.90;;;;;;5094853;28;20128;-57
2023/06/24 06:27:49;;;;;;;14.38;11.63;;;20.60;99.90;;;;;;5083014;28;20503;-58
2023/06/24 06:30:15;;;;;;;13.27;11.20;;;20.70;99.90;;;;;;5094661;28;20039;-58
2023/06/24 06:32:41;;;;;;;13.73;10.38;;;20.90;99.90;;;;;;5093968;28;20067;-57
2023/06/24 06:35:07;;;;;;;13.88;10.68;;;20.90;99.90;;;;;;5089614;28;20035;-58
2023/06/24 06:37:33;;;;;;;11.82;10.50;;;21.00;99.90;;;;;;5092731;28;20046;-57
2023/06/24 06:39:59;;;;;;;14.05;10.68;;;20.90;99.90;;;;;;5094105;28;20044;-58
2023/06/24 06:42:25;;;;;;;11.45;10.18;;;20.90;99.90;;;;;;5094017;28;20070;-57
2023/06/24 06:44:51;;;;;;;12.10;9.50;;;21.10;99.90;;;;;;5092169;28;21106;-57
2023/06/24 06:47:17;;;;;;;12.23;10.13;;;21.00;99.90;;;;;;5093239;28;20044;-57
2023/06/24 06:49:43;;;;;;;13.52;9.07;;;21.10;99.90;;;;;;5094116;28;20044;-56
2023/06/24 06:52:09;;;;;;;11.80;8.43;;;21.10;99.90;;;;;;5093993;28;20052;-57
2023/06/24 06:54:34;;;;;;;11.75;8.82;;;20.80;99.90;;;;;;5093646;28;20040;-57
2023/06/24 06:57:02;;;;;;;11.68;8.68;;;20.90;99.90;;;;;;5093462;28;20039;-57
2023/06/24 06:59:27;;;;;;;14.82;9.10;;;20.70;99.90;;;;;;5070316;28;20047;-57
2023/06/24 07:01:53;;;;;;;14.90;9.00;;;20.90;99.90;;;;;;5093312;28;20040;-57
2023/06/24 07:04:19;;;;;;;11.90;7.38;;;20.90;99.90;;;;;;5092869;28;20088;-57
2023/06/24 07:06:45;;;;;;;10.43;7.45;;;21.00;99.90;;;;;;5092497;28;20047;-57
2023/06/24 07:09:10;;;;;;;12.77;7.72;;;20.90;99.90;;;;;;5092285;28;20047;-57
2023/06/24 07:11:36;;;;;;;10.30;7.53;;;20.70;99.90;;;;;;5094145;28;20484;-57
2023/06/24 07:14:02;;;;;;;10.65;6.70;;;21.10;99.90;;;;;;5092622;28;20182;-58
2023/06/24 07:16:28;;;;;;;9.40;6.90;;;21.80;99.90;;;;;;5092266;28;20123;-58
2023/06/24 07:18:53;;;;;;;8.13;6.30;;;21.60;99.90;;;;;;5094239;28;20105;-57
2023/06/24 07:21:19;;;;;;;8.52;6.13;;;21.80;99.90;;;;;;5093256;28;20234;-57
2023/06/24 07:23:45;;;;;;;9.73;6.47;;;22.10;99.90;;;;;;5092955;28;20039;-57
2023/06/24 07:26:11;;;;;;;10.00;5.80;;;22.50;99.90;;;;;;5087101;28;20051;-57
2023/06/24 07:28:37;;;;;;;9.85;6.15;;;22.50;99.90;;;;;;5093213;28;20045;-57
2023/06/24 07:31:02;;;;;;;9.45;6.30;;;22.80;99.90;;;;;;5093595;28;20488;-58
2023/06/24 07:33:30;;;;;;;8.40;6.63;;;22.60;99.90;;;;;;5092048;28;20043;-57
2023/06/24 07:35:56;;;;;;;10.60;6.85;;;22.80;99.90;;;;;;5092027;28;20040;-57
2023/06/24 07:38:22;;;;;;;10.40;6.88;;;22.90;99.90;;;;;;5093430;28;20036;-57
2023/06/24 07:40:48;;;;;;;9.65;6.40;;;22.90;99.90;;;;;;5093454;28;20416;-57
2023/06/24 07:43:14;;;;;;;9.63;6.25;;;23.00;99.90;;;;;;5091963;28;20077;-57
2023/06/24 07:45:40;;;;;;;12.57;6.57;;;23.10;99.90;;;;;;5091768;28;20109;-57
2023/06/24 07:48:07;;;;;;;10.27;7.05;;;23.00;99.90;;;;;;5092028;28;20047;-57
2023/06/24 07:50:34;;;;;;;8.50;6.82;;;23.00;99.90;;;;;;5086011;28;20044;-57
2023/06/24 07:52:59;;;;;;;10.40;7.20;;;23.20;99.90;;;;;;5091534;28;20142;-57
2023/06/24 07:55:25;;;;;;;11.98;7.05;;;22.80;99.90;;;;;;5091750;28;20035;-56
2023/06/24 07:57:51;;;;;;;10.85;6.97;;;23.10;99.90;;;;;;5086751;28;20038;-57
2023/06/24 08:00:17;;;;;;;10.68;6.82;;;22.90;99.90;;;;;;5093781;28;20508;-58
2023/06/24 08:02:43;;;;;;;11.02;7.10;;;22.80;99.90;;;;;;5092698;28;20718;-57
2023/06/24 08:05:09;;;;;;;10.68;6.50;;;22.80;99.90;;;;;;5093060;28;20062;-57
2023/06/24 08:07:36;;;;;;;11.35;6.60;;;23.00;99.90;;;;;;5093127;28;21448;-57
2023/06/24 08:10:02;;;;;;;10.55;7.68;;;22.90;99.90;;;;;;5093745;28;20511;-57
2023/06/24 08:12:27;;;;;;;10.38;7.45;;;22.90;99.90;;;;;;5091940;28;20126;-57
2023/06/24 08:14:53;;;;;;;11.57;7.82;;;22.80;99.90;;;;;;5091211;28;20127;-56
2023/06/24 08:17:19;;;;;;;10.32;7.10;;;22.70;99.90;;;;;;5091843;28;20039;-57
2023/06/24 08:19:44;;;;;;;14.60;6.90;;;22.80;99.90;;;;;;5080519;28;20468;-57
2023/06/24 08:22:10;;;;;;;13.52;7.07;;;22.80;99.90;;;;;;5096750;28;20043;-57
2023/06/24 08:24:36;;;;;;;9.90;7.10;;;22.80;99.90;;;;;;5096256;28;20108;-57
2023/06/24 08:27:02;;;;;;;11.05;7.05;;;22.80;99.90;;;;;;5083745;28;20092;-57
2023/06/24 08:29:28;;;;;;;10.00;6.80;;;23.10;99.90;;;;;;5095743;28;20084;-57
2023/06/24 08:31:54;;;;;;;9.52;6.88;;;23.10;99.90;;;;;;5065879;28;20774;-57
2023/06/24 08:34:19;;;;;;;10.63;7.22;;;22.90;99.90;;;;;;5094558;27;20040;-57
2023/06/24 08:36:45;;;;;;;9.45;7.20;;;23.10;99.90;;;;;;5094907;28;20613;-57
2023/06/24 08:39:11;;;;;;;12.07;6.95;;;23.10;99.90;;;;;;5095828;28;20039;-58
2023/06/24 08:41:37;;;;;;;10.10;6.93;;;23.30;99.90;;;;;;5095150;28;20191;-57
2023/06/24 08:44:03;;;;;;;9.95;7.05;;;23.50;99.90;;;;;;5094263;28;20058;-58
2023/06/24 08:46:30;;;;;;;10.82;6.88;;;23.60;99.90;;;;;;5095497;28;20464;-57
2023/06/24 08:49:05;;;;;;;9.23;6.75;;;23.70;99.90;;;;;;5095208;28;20070;-57
2023/06/24 08:51:35;;;;;;;10.23;7.30;;;23.80;99.90;;;;;;5094605;28;20036;-57
2023/06/24 08:54:01;;;;;;;11.30;6.97;;;24.20;99.90;;;;;;5095157;28;20039;-57
2023/06/24 08:56:27;;;;;;;10.75;7.18;;;24.20;99.90;;;;;;5094996;28;20039;-57
2023/06/24 08:58:54;;;;;;;14.27;7.28;;;24.20;99.90;;;;;;5094178;28;20500;-57
2023/06/24 09:01:19;;;;;;;8.30;6.13;;;24.30;99.90;;;;;;5086363;28;20396;-57
2023/06/24 09:03:45;;;;;;;7.97;5.95;;;24.30;99.90;;;;;;5087967;28;20039;-57
2023/06/24 09:06:11;;;;;;;11.05;6.10;;;24.70;99.90;;;;;;5094673;28;20048;-57
2023/06/24 09:08:39;;;;;;;10.13;5.95;;;24.90;99.90;;;;;;5093912;28;20126;-57
2023/06/24 09:11:08;;;;;;;9.63;6.00;;;25.40;99.90;;;;;;5094429;28;20052;-57
2023/06/24 09:13:35;;;;;;;9.40;6.13;;;26.10;99.90;;;;;;5094568;28;20039;-57
2023/06/24 09:16:14;;;;;;;11.13;6.15;;;26.40;99.90;;;;;;5094705;28;20063;-58
2023/06/24 09:18:40;;;;;;;7.78;5.72;;;27.30;99.90;;;;;;5078634;28;20044;-57
2023/06/24 09:21:06;;;;;;;8.02;4.90;;;27.40;99.90;;;;;;5087988;28;20058;-58
2023/06/24 09:23:39;;;;;;;10.65;4.65;;;27.50;99.90;;;;;;5093929;28;20600;-58
2023/06/24 09:26:09;;;;;;;9.88;5.35;;;27.30;99.90;;;;;;5071635;28;20039;-58
2023/06/24 09:28:35;;;;;;;8.40;5.70;;;27.30;99.90;;;;;;5093646;28;20055;-57
2023/06/24 09:31:05;;;;;;;9.23;5.60;;;27.40;99.90;;;;;;5094106;28;20047;-57
2023/06/24 09:33:31;;;;;;;7.72;5.07;;;27.40;99.90;;;;;;5093493;28;20067;-57
2023/06/24 09:35:57;;;;;;;6.50;4.32;;;27.30;99.90;;;;;;5094119;28;20040;-58
2023/06/24 09:38:37;;;;;;;8.15;5.65;;;27.40;99.90;;;;;;5093872;28;20116;-58
2023/06/24 09:41:04;;;;;;;7.93;4.40;;;27.50;99.90;;;;;;5094372;28;20402;-58
2023/06/24 09:43:33;;;;;;;9.27;5.80;;;27.30;99.90;;;;;;5093469;28;20047;-58
2023/06/24 09:46:00;;;;;;;12.13;5.97;;;27.60;99.90;;;;;;5092197;28;20101;-57
2023/06/24 09:48:26;;;;;;;10.10;5.65;;;27.40;99.90;;;;;;5092353;28;20067;-58
2023/06/24 09:50:53;;;;;;;8.15;5.40;;;27.70;99.90;;;;;;5094349;28;20048;-58
2023/06/24 09:53:19;;;;;;;9.55;5.00;;;27.60;99.90;;;;;;5094070;28;20124;-58
2023/06/24 09:55:46;;;;;;;9.48;5.35;;;27.60;99.90;;;;;;5093156;28;20592;-57
2023/06/24 09:58:15;;;;;;;8.85;6.10;;;28.00;99.90;;;;;;5082477;28;20028;-57
2023/06/24 10:00:41;;;;;;;9.88;5.55;;;27.90;99.90;;;;;;5093504;28;20099;-57
2023/06/24 10:03:07;;;;;;;7.28;4.90;;;28.00;99.90;;;;;;5092123;28;20047;-58
2023/06/24 10:05:33;;;;;;;10.77;5.78;;;28.00;99.90;;;;;;5092424;28;20035;-57
2023/06/24 10:07:58;;;;;;;8.10;5.47;;;28.10;99.90;;;;;;5092318;28;20039;-57
2023/06/24 10:10:24;;;;;;;9.23;5.40;;;28.50;99.90;;;;;;5092495;28;20050;-57
2023/06/24 10:12:50;;;;;;;8.43;6.28;;;28.50;99.90;;;;;;5083365;28;20035;-58
2023/06/24 10:15:16;;;;;;;9.52;5.30;;;28.40;99.90;;;;;;5091788;28;20113;-57
2023/06/24 10:17:41;;;;;;;9.43;5.15;;;28.20;99.90;;;;;;5086537;28;20047;-58
2023/06/24 10:20:08;;;;;;;7.43;4.90;;;28.50;99.90;;;;;;5093808;28;20044;-58
2023/06/24 10:22:35;;;;;;;6.78;3.85;;;28.40;99.90;;;;;;5092252;28;20643;-57
2023/06/24 10:25:05;;;;;;;7.65;4.50;;;28.30;99.90;;;;;;5078295;28;20124;-57
2023/06/24 10:27:39;;;;;;;8.15;5.65;;;28.50;99.90;;;;;;5093411;28;20385;-57
2023/06/24 10:30:05;;;;;;;7.45;4.72;;;28.80;99.90;;;;;;5091910;28;20039;-57
2023/06/24 10:32:42;;;;;;;8.75;4.70;;;27.00;99.90;;;;;;5093423;28;20043;-58
2023/06/24 10:35:29;;;;;;;8.93;4.72;;;29.10;99.90;;;;;;5093185;28;20040;-57
2023/06/24 10:37:57;;;;;;;8.48;4.28;;;29.00;99.90;;;;;;5091909;28;20897;-57
2023/06/24 10:40:41;;;;;;;6.55;3.95;;;29.20;99.90;;;;;;5091526;28;20531;-56
2023/06/24 10:43:27;;;;;;;7.18;3.60;;;29.60;99.90;;;;;;5091181;28;20483;-56
2023/06/24 10:45:58;;;;;;;7.18;4.18;;;29.30;99.90;;;;;;5093089;28;20504;-58
2023/06/24 10:48:24;;;;;;;;;;;29.40;99.90;;;;;;5092603;28;20036;-57
2023/06/24 10:50:50;;;;;;;7.43;3.38;;;29.30;99.90;;;;;;5092930;28;19923;-57
2023/06/24 10:53:18;;;;;;;7.65;4.38;;;29.40;99.90;;;;;;5090449;28;20078;-57
2023/06/24 10:55:45;;;;;;;6.30;3.83;;;28.70;99.90;;;;;;5092436;28;20073;-57
2023/06/24 10:58:14;;;;;;;6.15;3.85;;;28.40;99.90;;;;;;5093040;28;20520;-57
2023/06/24 11:00:40;;;;;;;8.80;4.20;;;28.00;99.90;;;;;;5091807;28;20036;-57
2023/06/24 11:03:14;;;;;;;8.13;4.68;;;27.40;99.90;;;;;;5091513;28;20038;-57
2023/06/24 11:05:45;;;;;;;7.35;3.78;;;29.50;99.90;;;;;;5069995;28;20079;-57
2023/06/24 11:08:11;;;;;;;9.02;3.90;;;27.00;99.90;;;;;;5091615;28;20125;-57
2023/06/24 11:10:47;;;;;;;8.52;3.58;;;27.20;99.90;;;;;;5092191;28;20039;-57
2023/06/24 11:13:13;;;;;;;9.27;3.50;;;27.90;99.90;;;;;;5090564;28;20063;-57
2023/06/24 11:15:42;;;;;;;4.90;3.33;;;28.70;99.90;;;;;;5092039;28;20082;-57
2023/06/24 11:18:10;;;;;;;6.00;3.30;;;28.60;99.90;;;;;;5091433;28;20040;-57
2023/06/24 11:20:37;;;;;;;8.25;3.63;;;28.70;99.90;;;;;;5092764;28;20050;-57
2023/06/24 11:23:07;;;;;;;4.78;3.22;;;29.00;99.90;;;;;;5091020;28;20044;-57
2023/06/24 11:25:39;;;;;;;7.90;4.20;;;29.20;99.90;;;;;;5091956;28;20118;-57
2023/06/24 11:28:05;;;;;;;6.10;3.55;;;29.20;99.90;;;;;;5090474;28;20051;-57
2023/06/24 11:30:34;;;;;;;6.22;3.60;;;27.20;99.90;;;;;;5092130;28;20629;-57
2023/06/24 11:33:00;;;;;;;6.80;3.40;;;29.20;99.90;;;;;;5090679;28;20116;-57
2023/06/24 11:35:26;;;;;;;7.18;3.70;;;29.20;99.90;;;;;;5090467;28;20667;-56
2023/06/24 11:37:51;;;;;;;6.45;3.85;;;28.70;99.90;;;;;;5091094;28;21708;-56
2023/06/24 11:40:19;;;;;;;6.80;3.70;;;28.20;99.90;;;;;;5091546;28;20028;-56
2023/06/24 11:42:46;;;;;;;10.20;4.07;;;28.50;99.90;;;;;;5090033;28;20124;-57
2023/06/24 11:45:15;;;;;;;7.75;4.13;;;28.20;99.90;;;;;;5090535;28;21271;-56
2023/06/24 11:47:40;;;;;;;10.13;4.03;;;27.10;99.90;;;;;;5090037;28;20986;-57
2023/06/24 11:50:07;;;;;;;9.85;3.85;;;27.70;99.90;;;;;;5094110;28;20055;-57
2023/06/24 11:52:36;;;;;;;7.20;3.50;;;27.70;99.90;;;;;;5080780;28;20066;-56
2023/06/24 11:55:02;;;;;;;7.80;3.75;;;27.60;99.90;;;;;;5093619;28;20071;-56
2023/06/24 11:58:06;;;;;;;9.23;3.78;;;27.40;99.90;;;;;;5094757;28;20047;-56
2023/06/24 12:00:35;;;;;;;8.25;4.00;;;27.20;99.90;;;;;;4993599;28;20565;-57
2023/06/24 12:03:04;;;;;;;5.90;3.47;;;27.10;99.90;;;;;;5066087;28;20419;-57
2023/06/24 12:05:34;;;;;;;5.85;3.65;;;27.00;99.90;;;;;;5096166;28;20075;-57
2023/06/24 12:08:04;;;;;;;6.07;3.17;;;26.90;99.90;;;;;;5094863;28;20105;-57
2023/06/24 12:10:34;;;;;;;9.52;4.00;;;27.00;99.90;;;;;;5083827;28;20090;-57
2023/06/24 12:13:01;;;;;;;6.40;3.85;;;26.70;99.90;;;;;;5093316;28;20061;-57
2023/06/24 12:15:28;;;;;;;7.03;4.10;;;26.80;99.90;;;;;;5094589;28;20547;-58
2023/06/24 12:17:53;;;;;;;7.63;4.10;;;26.90;99.90;;;;;;5094920;28;20036;-59
2023/06/24 12:20:20;;;;;;;6.78;3.70;;;27.00;99.90;;;;;;5095834;28;20055;-59
2023/06/24 12:22:47;;;;;;;7.93;4.20;;;26.90;99.90;;;;;;5095648;28;20500;-58
2023/06/24 12:25:13;;;;;;;6.65;3.40;;;26.90;99.90;;;;;;5095395;28;20051;-58
2023/06/24 12:27:41;;;;;;;7.90;4.40;;;26.70;99.90;;;;;;5096510;28;20039;-59
2023/06/24 12:30:08;;;;;;;7.63;3.95;;;26.70;99.90;;;;;;5095936;28;20580;-59
2023/06/24 12:32:33;;;;;;;9.27;4.43;;;26.90;99.90;;;;;;5094552;28;20044;-59
2023/06/24 12:34:59;;;;;;;7.03;3.75;;;26.80;99.90;;;;;;5096396;28;20043;-59
2023/06/24 12:37:25;;;;;;;8.65;3.85;;;27.00;99.90;;;;;;5096524;28;20031;-59